createdAt,value
2022-08-05T00:00:32.973Z,1008.46
2022-08-05T00:06:05.582Z,1008.45
2022-08-05T00:10:47.317Z,1008.32
2022-08-05T00:15:58.367Z,1008.21
2022-08-05T00:21:01.956Z,1008.21
2022-08-05T00:26:08.906Z,1008.23
2022-08-05T00:31:15.893Z,1008.19
2022-08-05T00:37:12.996Z,1008.22
2022-08-05T00:41:29.963Z,1008.26
2022-08-05T00:46:43.462Z,1008.25
2022-08-05T00:51:51.580Z,1008.24
2022-08-05T00:56:51.437Z,1008.26
2022-08-05T01:01:58.841Z,1008.57
2022-08-05T01:07:05.785Z,1008.43
2022-08-05T01:12:18.525Z,1008.54
2022-08-05T01:17:19.749Z,1008.61
2022-08-05T01:22:28.301Z,1008.75
2022-08-05T01:27:34.326Z,1008.67
2022-08-05T01:32:41.199Z,1008.65
2022-08-05T01:37:48.615Z,1008.82
2022-08-05T01:42:57.478Z,1008.62
2022-08-05T01:48:02.899Z,1008.66
2022-08-05T01:53:09.996Z,1008.62
2022-08-05T01:58:16.923Z,1008.48
2022-08-05T02:03:24.418Z,1008.48
2022-08-05T02:08:31.532Z,1008.39
2022-08-05T02:13:53.824Z,1008.32
2022-08-05T02:18:45.510Z,1008.41
2022-08-05T02:23:52.426Z,1008.36
2022-08-05T02:28:59.488Z,1008.38
2022-08-05T02:34:06.427Z,1008.38
2022-08-05T02:39:13.984Z,1008.38
2022-08-05T02:44:20.882Z,1008.45
2022-08-05T02:49:37.019Z,1008.38
2022-08-05T02:54:37.049Z,1008.34
2022-08-05T02:59:50.150Z,1008.35
2022-08-05T03:04:53.207Z,1008.37
2022-08-05T03:09:56.503Z,1008.31
2022-08-05T03:15:03.415Z,1008.16
2022-08-05T03:15:03.482Z,1008.16
2022-08-05T03:20:10.882Z,1008.06
2022-08-05T03:25:32.956Z,1008.00
2022-08-05T03:30:30.261Z,1008.02
2022-08-05T03:35:33.972Z,1007.96
2022-08-05T03:40:39.292Z,1007.99
2022-08-05T03:45:55.097Z,1008.02
2022-08-05T03:50:53.227Z,1008.10
2022-08-05T03:56:11.946Z,1008.18
2022-08-05T04:01:07.749Z,1008.23
2022-08-05T04:06:14.835Z,1008.28
2022-08-05T04:11:21.927Z,1008.27
2022-08-05T04:16:32.293Z,1008.25
2022-08-05T04:22:08.506Z,1008.31
2022-08-05T04:26:43.190Z,1008.42
2022-08-05T04:31:50.185Z,1008.51
2022-08-05T04:36:57.757Z,1008.52
2022-08-05T04:42:04.720Z,1008.59
2022-08-05T04:47:14.605Z,1008.66
2022-08-05T04:52:18.941Z,1008.69
2022-08-05T04:57:28.514Z,1008.58
2022-08-05T05:02:36.166Z,1008.51
2022-08-05T05:07:40.200Z,1008.65
2022-08-05T05:12:47.147Z,1008.74
2022-08-05T05:17:57.083Z,1008.83
2022-08-05T05:23:08.324Z,1008.96
2022-08-05T05:28:09.353Z,1009.09
2022-08-05T05:33:17.554Z,1009.36
2022-08-05T05:38:27.433Z,1009.50
2022-08-05T05:43:58.031Z,1009.53
2022-08-05T05:48:37.277Z,1009.50
2022-08-05T05:53:54.063Z,1009.51
2022-08-05T05:58:51.567Z,1009.73
2022-08-05T06:04:02.184Z,1010.10
2022-08-05T06:09:06.015Z,1010.11
2022-08-05T06:19:34.136Z,1010.15
2022-08-05T06:24:27.397Z,1010.25
2022-08-05T06:29:46.723Z,1010.35
2022-08-05T06:34:40.998Z,1010.38
2022-08-05T06:39:48.798Z,1010.42
2022-08-05T06:44:55.685Z,1010.33
2022-08-05T06:50:05.384Z,1010.47
2022-08-05T06:55:09.816Z,1010.52
2022-08-05T07:00:22.183Z,1010.41
2022-08-05T07:05:36.976Z,1010.43
2022-08-05T07:10:32.678Z,1010.45
2022-08-05T07:16:01.098Z,1010.60
2022-08-05T07:20:45.511Z,1010.67
2022-08-05T07:25:55.464Z,1010.88
2022-08-05T07:30:59.949Z,1011.18
2022-08-05T07:36:20.042Z,1011.09
2022-08-05T07:41:35.026Z,1011.00
2022-08-05T07:46:25.240Z,1010.90
2022-08-05T07:51:40.256Z,1010.80
2022-08-05T07:57:00.033Z,1010.95
2022-08-05T08:01:52.088Z,1010.81
2022-08-05T08:06:49.643Z,1010.64
2022-08-05T08:12:00.090Z,1010.53
2022-08-05T08:17:04.014Z,1010.43
2022-08-05T08:22:11.180Z,1010.37
2022-08-05T08:27:18.256Z,1010.13
2022-08-05T08:32:28.185Z,1010.32
2022-08-05T08:37:32.326Z,1010.42
2022-08-05T08:42:50.978Z,1010.71
2022-08-05T08:48:06.619Z,1010.88
2022-08-05T08:52:54.021Z,1010.82
2022-08-05T08:58:01.005Z,1010.91
2022-08-05T09:08:15.057Z,1011.21
2022-08-05T09:13:23.648Z,1011.31
2022-08-05T09:18:29.706Z,1011.35
2022-08-05T09:23:37.437Z,1011.28
2022-08-05T09:28:43.609Z,1011.25
2022-08-05T09:33:51.018Z,1011.27
2022-08-05T09:38:58.076Z,1011.26
2022-08-05T09:44:05.209Z,1011.32
2022-08-05T09:49:19.551Z,1011.35
2022-08-05T09:54:21.375Z,1011.16
2022-08-05T09:59:27.675Z,1010.85
2022-08-05T10:04:33.436Z,1010.68
2022-08-05T10:09:45.471Z,1010.26
2022-08-05T10:14:48.029Z,1010.50
2022-08-05T10:20:03.884Z,1010.56
2022-08-05T10:25:02.107Z,1010.92
2022-08-05T10:31:20.727Z,1010.82
2022-08-05T10:35:16.537Z,1011.12
2022-08-05T10:40:28.322Z,1011.31
2022-08-05T10:45:41.878Z,1011.36
2022-08-05T10:50:37.704Z,1011.21
2022-08-05T10:56:05.474Z,1011.07
2022-08-05T11:00:55.459Z,1011.14
2022-08-05T11:05:58.815Z,1011.14
2022-08-05T11:11:14.590Z,1011.06
2022-08-05T11:16:13.199Z,1011.09
2022-08-05T11:21:20.173Z,1011.26
2022-08-05T11:26:29.267Z,1011.47
2022-08-05T11:31:58.023Z,1011.55
2022-08-05T11:36:42.740Z,1011.60
2022-08-05T11:41:56.492Z,1011.79
2022-08-05T11:47:09.380Z,1011.94
2022-08-05T11:52:08.424Z,1011.94
2022-08-05T11:57:24.785Z,1012.00
2022-08-05T12:02:30.035Z,1012.06
2022-08-05T12:08:09.692Z,1012.01
2022-08-05T12:12:31.638Z,1011.95
2022-08-05T12:18:03.918Z,1012.09
2022-08-05T12:22:46.405Z,1012.17
2022-08-05T12:27:53.663Z,1012.19
2022-08-05T12:33:07.544Z,1012.09
2022-08-05T12:38:07.540Z,1012.15
2022-08-05T12:43:21.132Z,1012.14
2022-08-05T12:48:32.329Z,1012.04
2022-08-05T12:53:36.785Z,1012.14
2022-08-05T12:58:48.201Z,1012.09
2022-08-05T13:03:45.468Z,1012.13
2022-08-05T13:08:51.920Z,1012.23
2022-08-05T13:14:05.835Z,1011.99
2022-08-05T13:19:04.798Z,1011.98
2022-08-05T13:24:11.761Z,1012.12
2022-08-05T13:29:19.364Z,1012.09
2022-08-05T13:34:26.538Z,1012.08
2022-08-05T13:40:16.128Z,1012.11
2022-08-05T13:44:45.072Z,1012.09
2022-08-05T13:49:47.955Z,1012.05
2022-08-05T13:54:54.990Z,1011.97
2022-08-05T14:00:03.441Z,1011.94
2022-08-05T14:05:11.442Z,1011.93
2022-08-05T14:10:19.065Z,1011.94
2022-08-05T14:16:04.664Z,1011.98
2022-08-05T14:20:30.739Z,1012.04
2022-08-05T14:25:37.685Z,1012.13
2022-08-05T14:30:46.384Z,1012.18
2022-08-05T14:35:54.069Z,1012.16
2022-08-05T14:40:59.171Z,1012.30
2022-08-05T14:46:06.652Z,1012.17
2022-08-05T14:51:16.123Z,1012.22
2022-08-05T14:56:22.626Z,1012.20
2022-08-05T15:01:48.703Z,1012.02
2022-08-05T15:06:35.097Z,1012.02
2022-08-05T15:11:51.323Z,1012.06
2022-08-05T15:16:49.012Z,1011.98
2022-08-05T15:21:58.013Z,1011.98
2022-08-05T15:27:03.495Z,1012.12
2022-08-05T15:32:10.850Z,1012.16
2022-08-05T15:38:03.749Z,1012.16
2022-08-05T15:42:53.498Z,1012.02
2022-08-05T15:47:31.932Z,1011.94
2022-08-05T15:52:52.742Z,1012.02
2022-08-05T15:57:49.051Z,1012.12
2022-08-05T16:02:53.424Z,1012.12
2022-08-05T16:08:00.730Z,1012.17
2022-08-05T16:13:07.894Z,1012.31
2022-08-05T16:18:14.891Z,1012.35
2022-08-05T16:23:21.819Z,1012.51
2022-08-05T16:28:29.248Z,1012.55
2022-08-05T16:33:41.387Z,1012.71
2022-08-05T16:38:43.432Z,1012.81
2022-08-05T16:43:56.590Z,1012.90
2022-08-05T16:48:57.945Z,1013.21
2022-08-05T16:54:15.084Z,1013.27
2022-08-05T16:59:15.630Z,1013.21
2022-08-05T17:04:19.044Z,1013.16
2022-08-05T17:09:26.025Z,1013.24
2022-08-05T17:14:36.796Z,1013.37
2022-08-05T17:19:40.646Z,1013.39
2022-08-05T17:24:57.640Z,1013.69
2022-08-05T17:30:00.662Z,1013.85
2022-08-05T17:35:01.852Z,1014.00
2022-08-05T17:40:10.835Z,1013.94
2022-08-05T17:45:20.032Z,1013.99
2022-08-05T17:50:29.669Z,1014.03
2022-08-05T17:55:37.235Z,1014.21
2022-08-05T18:00:40.773Z,1014.31
2022-08-05T18:05:44.375Z,1014.39
2022-08-05T18:10:51.745Z,1014.45
2022-08-05T18:15:59.091Z,1014.46
2022-08-05T18:21:05.685Z,1014.50
2022-08-05T18:26:13.050Z,1014.62
2022-08-05T18:31:20.075Z,1014.66
2022-08-05T18:36:28.247Z,1014.74
2022-08-05T18:41:58.226Z,1014.73
2022-08-05T18:46:43.166Z,1014.69
2022-08-05T18:52:04.098Z,1014.70
2022-08-05T18:56:57.101Z,1014.93
2022-08-05T19:07:09.963Z,1015.07
2022-08-05T19:12:16.967Z,1015.13
2022-08-05T19:17:23.964Z,1015.28
2022-08-05T19:22:31.202Z,1015.32
2022-08-05T19:27:38.509Z,1015.41
2022-08-05T19:32:45.588Z,1015.49
2022-08-05T19:38:06.037Z,1015.47
2022-08-05T19:43:00.741Z,1015.65
2022-08-05T19:48:06.704Z,1015.72
2022-08-05T19:53:13.649Z,1015.68
2022-08-05T19:58:28.462Z,1015.75
2022-08-05T20:03:29.261Z,1015.79
2022-08-05T20:08:34.994Z,1015.80
2022-08-05T20:18:55.344Z,1015.80
2022-08-05T20:23:56.412Z,1015.88
2022-08-05T20:29:03.541Z,1016.03
2022-08-05T20:34:10.648Z,1016.15
2022-08-05T20:39:17.693Z,1016.22
2022-08-05T20:44:30.270Z,1016.33
2022-08-05T20:49:37.855Z,1016.45
2022-08-05T20:54:55.315Z,1016.62
2022-08-05T21:00:19.757Z,1016.69
2022-08-05T21:04:53.162Z,1016.75
2022-08-05T21:10:00.155Z,1016.76
2022-08-05T21:15:07.746Z,1016.83
2022-08-05T21:20:14.679Z,1016.91
2022-08-05T21:25:21.752Z,1016.93
2022-08-05T21:30:31.866Z,1016.97
2022-08-05T21:35:55.481Z,1016.95
2022-08-05T21:40:42.956Z,1016.93
2022-08-05T21:45:56.880Z,1016.91
2022-08-05T21:50:57.412Z,1016.85
2022-08-05T21:56:09.865Z,1016.82
2022-08-05T22:01:11.316Z,1016.88
2022-08-05T22:06:22.789Z,1017.06
2022-08-05T22:11:34.966Z,1017.24
2022-08-05T22:16:50.873Z,1017.15
2022-08-05T22:21:39.454Z,1017.07
2022-08-05T22:26:49.637Z,1017.29
2022-08-05T22:31:55.131Z,1017.37
2022-08-05T22:37:00.896Z,1017.39
2022-08-05T22:42:11.016Z,1017.36
2022-08-05T22:47:29.018Z,1017.39
2022-08-05T22:52:30.254Z,1017.46
2022-08-05T22:57:34.025Z,1017.55
2022-08-05T23:02:39.781Z,1017.60
2022-08-05T23:07:48.262Z,1017.67
2022-08-05T23:12:51.717Z,1017.77
2022-08-05T23:17:59.886Z,1017.72
2022-08-05T23:23:05.991Z,1017.70
2022-08-05T23:28:12.093Z,1017.73
2022-08-05T23:33:25.736Z,1017.74
2022-08-05T23:38:26.191Z,1017.77
2022-08-05T23:44:02.940Z,1017.79
2022-08-05T23:48:40.686Z,1017.95
2022-08-05T23:53:47.606Z,1017.98
2022-08-05T23:58:54.601Z,1017.94
